Time;durP1;ratioP1;P1;durP2;ratioP2;P2;SDS_P1;SDS_P2;PMS_P1;PMS_P2;Temp;Humidity;BMP_temperature;BMP_pressure;BME280_temperature;BME280_humidity;BME280_pressure;Samples;Min_cycle;Max_cycle;Signal;HPM_P1;HPM_P2
2022/05/03 00:01:51;;;;;;;;;39.50;37.25;;;;;14.20;52.42;101615.94;5073059;27;49634;-64
2022/05/03 00:04:31;;;;;;;;;33.00;30.25;;;;;14.14;51.85;101608.78;5071579;28;50187;-64
2022/05/03 00:07:08;;;;;;;;;40.50;34.00;;;;;14.21;52.47;101613.31;5065526;28;51879;-64
2022/05/03 00:10:22;;;;;;;;;31.00;30.50;;;;;14.20;52.27;101610.66;5070662;28;49818;-64
2022/05/03 00:12:55;;;;;;;;;38.75;36.50;;;;;14.08;51.95;101589.25;5047172;28;49674;-64
2022/05/03 00:15:23;;;;;;;;;42.50;37.00;;;;;14.10;52.34;101599.03;5072982;27;49856;-65
2022/05/03 00:17:50;;;;;;;;;41.25;36.00;;;;;14.16;52.38;101607.03;5072408;28;49867;-65
2022/05/03 00:20:16;;;;;;;;;39.25;37.00;;;;;14.15;52.52;101607.91;5072636;28;49638;-65
2022/05/03 00:22:43;;;;;;;;;38.00;33.50;;;;;14.07;52.38;101598.94;5071200;28;49863;-64
2022/05/03 00:25:09;;;;;;;;;35.75;34.50;;;;;14.10;52.55;101604.31;5072485;28;49845;-65
2022/05/03 00:27:35;;;;;;;;;46.50;38.25;;;;;14.07;52.40;101601.56;5071070;28;50787;-64
2022/05/03 00:30:03;;;;;;;;;35.00;33.00;;;;;14.07;52.34;101595.41;5072310;28;50170;-65
2022/05/03 00:32:29;;;;;;;;;37.25;33.75;;;;;14.02;52.46;101590.94;5071923;28;49687;-66
2022/05/03 00:35:00;;;;;;;;;38.25;35.50;;;;;13.99;52.92;101585.63;5071036;28;49775;-64
2022/05/03 00:37:26;;;;;;;;;38.50;35.25;;;;;13.85;53.00;101565.06;5072253;28;49761;-64
2022/05/03 00:39:51;;;;;;;;;33.25;33.00;;;;;13.92;52.49;101588.97;5072050;28;49925;-64
2022/05/03 00:42:28;;;;;;;;;38.25;33.75;;;;;13.97;52.49;101597.88;5072353;28;50133;-65
2022/05/03 00:45:28;;;;;;;;;36.25;33.25;;;;;13.91;52.14;101592.47;5072605;28;49986;-64
2022/05/03 00:47:54;;;;;;;;;41.50;34.50;;;;;13.91;52.33;101599.50;5072095;27;49971;-64
2022/05/03 00:50:29;;;;;;;;;34.25;33.50;;;;;13.90;52.85;101588.06;5072076;27;50002;-64
2022/05/03 00:53:17;;;;;;;;;39.75;34.75;;;;;13.86;52.39;101596.75;5066004;28;49842;-64
2022/05/03 00:55:48;;;;;;;;;38.75;33.50;;;;;13.83;52.15;101598.47;5068798;28;49604;-64
2022/05/03 00:58:41;;;;;;;;;45.50;37.75;;;;;13.78;52.53;101598.34;5072068;28;49671;-64
2022/05/03 01:01:37;;;;;;;;;43.00;36.25;;;;;13.61;52.86;101576.91;5065628;28;49717;-64
2022/05/03 01:04:12;;;;;;;;;43.00;35.50;;;;;13.75;52.75;101599.19;5069285;28;49696;-64
2022/05/03 01:06:54;;;;;;;;;36.00;33.00;;;;;13.69;52.71;101577.94;5072147;28;49759;-64
2022/05/03 01:09:30;;;;;;;;;40.00;37.00;;;;;13.66;52.61;101588.44;5064897;28;49813;-64
2022/05/03 01:12:04;;;;;;;;;37.75;34.50;;;;;13.65;52.70;101594.56;5071799;28;49832;-64
2022/05/03 01:14:48;;;;;;;;;38.00;33.25;;;;;13.48;52.73;101590.66;5071956;28;49656;-64
2022/05/03 01:17:40;;;;;;;;;43.75;35.75;;;;;13.49;52.91;101589.81;5070294;28;50401;-64
2022/05/03 01:20:07;;;;;;;;;39.00;34.50;;;;;13.51;53.38;101590.75;5064777;28;50787;-64
2022/05/03 01:22:51;;;;;;;;;38.25;34.50;;;;;13.51;52.79;101603.94;5071581;27;49930;-64
2022/05/03 01:25:36;;;;;;;;;45.00;38.25;;;;;13.36;53.05;101575.47;5071593;28;49755;-66
2022/05/03 01:28:26;;;;;;;;;41.50;36.00;;;;;13.48;53.35;101595.94;5071603;28;49629;-64
2022/05/03 01:30:52;;;;;;;;;43.50;36.25;;;;;13.30;53.00;101570.03;5066209;28;50730;-64
2022/05/03 01:33:24;;;;;;;;;44.25;36.75;;;;;13.38;53.13;101584.28;5071545;27;49813;-64
2022/05/03 01:35:51;;;;;;;;;43.50;37.75;;;;;13.34;53.08;101587.72;5071656;27;49955;-64
2022/05/03 01:38:42;;;;;;;;;37.00;32.50;;;;;13.33;52.97;101585.94;5071218;28;50215;-64
2022/05/03 01:41:24;;;;;;;;;40.75;36.75;;;;;13.32;53.54;101588.56;5071023;28;50046;-64
2022/05/03 01:44:05;;;;;;;;;38.25;35.00;;;;;13.30;53.44;101592.88;5063497;28;49805;-70
2022/05/03 01:46:35;;;;;;;;;42.50;35.00;;;;;13.26;53.34;101575.22;5066213;28;49890;-68
2022/05/03 01:52:01;;;;;;;;;40.50;35.00;;;;;13.18;53.42;101585.56;5071107;28;49758;-70
2022/05/03 01:54:26;;;;;;;;;45.25;37.75;;;;;13.12;53.64;101574.84;5071019;28;50277;-68
2022/05/03 01:57:07;;;;;;;;;41.00;33.25;;;;;13.01;53.17;101550.88;5071126;28;49689;-65
2022/05/03 01:59:44;;;;;;;;;39.75;35.00;;;;;13.05;53.65;101579.13;5071189;28;49945;-65
2022/05/03 02:02:25;;;;;;;;;40.75;35.50;;;;;13.01;53.63;101569.34;5070766;28;49933;-64
2022/05/03 02:05:03;;;;;;;;;43.25;33.25;;;;;13.00;53.68;101570.19;5070884;27;49746;-66
2022/05/03 02:07:55;;;;;;;;;37.50;36.00;;;;;12.98;53.65;101564.00;5071086;27;49956;-67
2022/05/03 02:10:39;;;;;;;;;45.75;37.50;;;;;12.93;54.07;101575.28;5070949;28;49906;-64
2022/05/03 02:13:31;;;;;;;;;33.50;32.00;;;;;12.90;53.97;101578.72;5070809;27;50882;-65
2022/05/03 02:16:09;;;;;;;;;41.00;36.75;;;;;12.90;53.85;101570.81;5070634;28;49925;-65
2022/05/03 02:18:59;;;;;;;;;45.75;38.75;;;;;12.70;54.12;101546.63;5070744;28;49807;-64
2022/05/03 02:21:52;;;;;;;;;34.25;31.25;;;;;12.78;54.13;101562.63;5070919;28;49777;-64
2022/05/03 02:24:39;;;;;;;;;40.50;35.50;;;;;12.75;54.33;101568.72;5070062;27;49829;-65
2022/05/03 02:27:09;;;;;;;;;36.75;34.75;;;;;12.65;54.53;101555.28;5070719;28;49775;-68
2022/05/03 02:29:45;;;;;;;;;26.00;22.25;;;;;12.73;54.48;101582.69;5069271;28;49907;-63
2022/05/03 02:32:12;;;;;;;;;39.50;31.75;;;;;12.72;54.79;101573.91;5070798;28;49846;-64
2022/05/03 02:34:48;;;;;;;;;31.75;30.00;;;;;12.66;54.75;101580.78;5070482;27;49804;-65
2022/05/03 02:37:17;;;;;;;;;41.00;35.50;;;;;12.61;54.77;101580.66;5070413;28;49675;-67
2022/05/03 02:39:58;;;;;;;;;39.25;32.50;;;;;12.63;54.64;101583.31;5070451;28;49758;-64
2022/05/03 02:42:25;;;;;;;;;43.00;35.75;;;;;12.51;55.01;101579.50;5070458;28;49931;-64
2022/05/03 02:44:54;;;;;;;;;37.75;35.50;;;;;12.47;55.28;101553.06;5070230;28;49926;-64
2022/05/03 02:47:33;;;;;;;;;41.50;35.00;;;;;12.66;55.66;101576.41;5070403;28;49782;-64
2022/05/03 02:50:06;;;;;;;;;34.25;30.00;;;;;12.59;56.57;101580.59;5070467;28;49871;-64
2022/05/03 02:52:58;;;;;;;;;35.25;33.00;;;;;12.57;56.79;101582.31;5070614;28;50008;-64
2022/05/03 02:55:30;;;;;;;;;33.25;29.00;;;;;12.58;57.07;101576.19;5063278;28;49725;-63
2022/05/03 02:58:33;;;;;;;;;34.50;31.50;;;;;12.60;56.84;101574.47;5070241;28;50020;-65
2022/05/03 03:04:05;;;;;;;;;40.25;33.75;;;;;12.56;57.29;101582.28;5070306;28;50018;-67
2022/05/03 03:06:33;;;;;;;;;37.25;32.00;;;;;12.49;57.39;101575.97;5070109;27;49865;-67
2022/05/03 03:09:00;;;;;;;;;41.75;36.25;;;;;12.37;57.41;101557.22;5069794;28;49744;-64
2022/05/03 03:11:47;;;;;;;;;37.25;29.50;;;;;12.53;57.32;101582.19;5070117;28;49698;-66
2022/05/03 03:14:21;;;;;;;;;32.75;32.00;;;;;12.46;57.64;101580.28;5070032;28;49823;-64
2022/05/03 03:17:00;;;;;;;;;37.50;35.00;;;;;12.49;57.49;101581.22;5068410;28;52614;-64
2022/05/03 03:19:37;;;;;;;;;44.25;35.00;;;;;12.48;57.71;101582.09;5070024;28;49874;-64
2022/05/03 03:22:07;;;;;;;;;38.25;35.50;;;;;12.33;57.30;101565.88;5069947;28;49803;-64
2022/05/03 03:24:36;;;;;;;;;36.25;34.75;;;;;12.44;57.51;101577.56;5069943;28;50177;-64
2022/05/03 03:27:04;;;;;;;;;37.00;35.50;;;;;12.38;57.67;101572.16;5068372;28;51861;-65
2022/05/03 03:29:31;;;;;;;;;37.50;30.75;;;;;12.39;57.58;101562.53;5070059;28;49971;-64
2022/05/03 03:31:59;;;;;;;;;31.50;28.00;;;;;12.37;57.71;101553.69;5069980;28;49822;-64
2022/05/03 03:34:25;;;;;;;;;41.75;36.25;;;;;12.41;57.40;101566.97;5069957;28;49967;-63
2022/05/03 03:37:01;;;;;;;;;38.25;35.25;;;;;12.50;57.52;101575.09;5068255;28;52426;-64
2022/05/03 03:39:30;;;;;;;;;38.50;35.00;;;;;12.29;57.69;101537.69;5069460;28;49887;-64
2022/05/03 03:41:58;;;;;;;;;43.00;37.50;;;;;12.43;57.58;101560.00;5068256;28;49769;-65
2022/05/03 03:44:24;;;;;;;;;35.75;33.75;;;;;12.46;57.79;101561.84;5069855;28;49849;-64
2022/05/03 03:46:50;;;;;;;;;43.75;37.50;;;;;12.55;57.60;101559.44;5069589;28;51011;-65
2022/05/03 03:49:15;;;;;;;;;35.25;28.25;;;;;12.50;57.43;101554.03;5069443;27;49717;-65
2022/05/03 03:51:42;;;;;;;;;41.75;33.75;;;;;12.49;57.34;101554.00;5069518;28;49853;-65
2022/05/03 03:54:08;;;;;;;;;36.00;34.25;;;;;12.58;57.19;101559.50;5069607;28;49964;-65
2022/05/03 03:56:34;;;;;;;;;42.50;39.00;;;;;12.63;57.43;101567.50;5069403;28;51050;-64
2022/05/03 03:59:01;;;;;;;;;41.00;36.00;;;;;12.55;57.35;101557.69;5069495;28;49698;-64
2022/05/03 04:01:27;;;;;;;;;37.25;33.75;;;;;12.50;57.36;101550.50;5069704;27;49978;-64
2022/05/03 04:03:53;;;;;;;;;41.50;34.25;;;;;12.48;57.36;101544.31;5069509;28;49576;-64
2022/05/03 04:06:18;;;;;;;;;33.50;33.00;;;;;12.54;57.14;101555.88;5070546;28;49676;-64
2022/05/03 04:08:44;;;;;;;;;34.00;33.25;;;;;12.54;56.95;101552.34;5072706;27;49753;-64
2022/05/03 04:11:16;;;;;;;;;42.50;37.00;;;;;12.58;57.44;101568.28;5072872;28;49989;-65
2022/05/03 04:13:43;;;;;;;;;45.00;40.00;;;;;12.60;57.27;101566.59;5073025;28;49848;-64
2022/05/03 04:16:09;;;;;;;;;39.25;37.00;;;;;12.51;57.03;101547.91;5072532;28;50640;-67
2022/05/03 04:18:44;;;;;;;;;45.00;34.50;;;;;12.50;57.28;101555.78;5072901;27;49663;-66
2022/05/03 04:21:18;;;;;;;;;49.00;37.25;;;;;12.45;57.19;101547.78;5072627;28;49719;-68
2022/05/03 04:23:45;;;;;;;;;36.25;34.25;;;;;12.56;56.75;101561.22;5072603;28;49699;-66
2022/05/03 04:26:11;;;;;;;;;37.75;34.25;;;;;12.58;56.84;101578.84;5072367;28;50742;-65
2022/05/03 04:28:38;;;;;;;;;41.50;35.50;;;;;12.47;57.08;101561.88;5070768;28;50014;-66
2022/05/03 04:31:04;;;;;;;;;45.00;39.50;;;;;12.21;57.14;101512.91;5072687;28;49745;-66
2022/05/03 04:33:29;;;;;;;;;49.25;38.25;;;;;12.32;57.39;101525.47;5072762;28;49990;-67
2022/05/03 04:35:54;;;;;;;;;37.25;34.00;;;;;12.41;57.13;101545.00;5072313;28;49793;-68
2022/05/03 04:38:20;;;;;;;;;44.50;35.75;;;;;12.58;57.30;101570.03;5071929;28;54777;-65
2022/05/03 04:40:45;;;;;;;;;38.75;35.25;;;;;12.46;56.90;101559.19;5070944;28;49984;-66
2022/05/03 04:43:11;;;;;;;;;38.50;36.00;;;;;12.44;56.95;101567.03;5072369;28;49856;-66
2022/05/03 04:45:37;;;;;;;;;38.50;34.50;;;;;12.37;57.38;101549.31;5072062;28;49849;-65
2022/05/03 04:48:02;;;;;;;;;36.75;35.75;;;;;12.49;57.09;101575.97;5072372;28;49976;-66
2022/05/03 04:50:28;;;;;;;;;48.50;37.25;;;;;12.42;57.40;101567.84;5072278;28;49643;-65
2022/05/03 04:52:53;;;;;;;;;46.00;39.50;;;;;12.41;57.32;101573.97;5072223;28;49517;-64
2022/05/03 04:55:18;;;;;;;;;40.50;36.50;;;;;12.44;57.53;101581.94;5071864;28;49844;-66
2022/05/03 04:57:44;;;;;;;;;44.75;38.25;;;;;12.35;57.74;101561.53;5070686;28;49772;-67
2022/05/03 05:00:09;;;;;;;;;29.25;25.50;;;;;12.30;57.83;101550.88;5071938;28;49826;-64
2022/05/03 05:02:36;;;;;;;;;43.75;37.25;;;;;12.39;57.80;101573.06;5070645;28;49836;-66
2022/05/03 05:05:01;;;;;;;;;44.50;36.50;;;;;12.36;57.89;101573.88;5071920;28;49939;-65
2022/05/03 05:07:26;;;;;;;;;40.00;33.75;;;;;12.41;57.72;101574.88;5071988;28;49725;-65
2022/05/03 05:12:36;;;;;;;;;53.75;43.25;;;;;12.36;58.04;101576.50;5072189;28;49652;-65
2022/05/03 05:15:01;;;;;;;;;41.50;36.25;;;;;12.51;58.11;101591.78;5071714;28;51763;-65
2022/05/03 05:17:27;;;;;;;;;50.50;40.50;;;;;12.54;57.78;101591.88;5071547;28;49855;-65
2022/05/03 05:19:52;;;;;;;;;44.75;38.00;;;;;12.49;57.62;101578.59;5071777;28;49771;-65
2022/05/03 05:22:18;;;;;;;;;42.25;34.25;;;;;12.41;57.97;101560.81;5071862;28;49944;-66
2022/05/03 05:24:43;;;;;;;;;41.25;36.50;;;;;12.44;56.81;101595.09;5071039;28;49888;-64
2022/05/03 05:27:08;;;;;;;;;49.75;38.00;;;;;12.03;57.06;101544.88;5071608;28;49868;-64
2022/05/03 05:29:34;;;;;;;;;41.25;36.25;;;;;12.32;57.19;101595.69;5070338;28;49840;-64
2022/05/03 05:31:59;;;;;;;;;42.75;38.00;;;;;12.31;57.21;101594.78;5071843;28;49793;-65
2022/05/03 05:34:24;;;;;;;;;48.75;37.00;;;;;12.44;57.55;101587.22;5071160;28;55988;-64
2022/05/03 05:36:50;;;;;;;;;46.50;38.25;;;;;12.58;57.60;101613.06;5065915;27;49884;-65
2022/05/03 05:39:15;;;;;;;;;46.00;37.00;;;;;12.53;57.57;101580.44;5059333;28;49953;-64
2022/05/03 05:41:40;;;;;;;;;44.75;37.00;;;;;12.69;57.27;101599.28;5070705;27;49964;-64
2022/05/03 05:44:06;;;;;;;;;40.25;37.00;;;;;12.72;57.37;101610.78;5067618;28;50971;-65
2022/05/03 05:46:31;;;;;;;;;44.50;37.00;;;;;12.72;56.86;101596.72;5070979;28;49795;-64
2022/05/03 05:48:56;;;;;;;;;44.75;36.00;;;;;12.63;57.21;101578.03;5071357;28;49802;-64
2022/05/03 05:51:22;;;;;;;;;42.00;34.00;;;;;12.90;57.12;101607.72;5069991;28;49778;-64
2022/05/03 05:53:47;;;;;;;;;47.00;37.75;;;;;12.97;56.42;101606.13;5070734;28;53936;-64
2022/05/03 05:56:14;;;;;;;;;38.00;34.25;;;;;12.94;56.41;101596.41;5064387;28;49718;-64
2022/05/03 05:58:40;;;;;;;;;49.75;38.75;;;;;13.06;56.23;101599.34;5071122;28;50218;-66
2022/05/03 06:01:05;;;;;;;;;44.00;39.25;;;;;13.06;55.92;101595.81;5071271;28;50045;-64
2022/05/03 06:03:31;;;;;;;;;45.75;39.75;;;;;13.25;55.81;101610.34;5068690;28;49800;-65
2022/05/03 06:05:56;;;;;;;;;45.50;38.75;;;;;13.19;55.92;101603.19;5071016;28;49834;-64
2022/05/03 06:08:23;;;;;;;;;47.25;38.25;;;;;13.20;55.87;101594.41;5065366;28;50440;-65
2022/05/03 06:10:49;;;;;;;;;40.25;37.25;;;;;13.41;55.82;101626.59;5069542;28;49727;-66
2022/05/03 06:13:15;;;;;;;;;46.25;37.75;;;;;13.55;55.13;101624.25;5070870;28;50860;-64
2022/05/03 06:15:41;;;;;;;;;44.25;38.25;;;;;13.65;55.24;101617.41;5069669;28;49720;-65
2022/05/03 06:18:08;;;;;;;;;44.25;37.50;;;;;13.75;55.19;101616.75;5073827;28;49726;-64
2022/05/03 06:20:33;;;;;;;;;44.50;38.75;;;;;13.84;54.65;101608.16;5071111;28;50044;-70
2022/05/03 06:22:59;;;;;;;;;43.50;36.50;;;;;13.96;54.76;101621.59;5069522;28;50504;-62
2022/05/03 06:25:24;;;;;;;;;38.75;35.25;;;;;14.04;54.42;101601.53;5070642;28;49588;-62
2022/05/03 06:27:50;;;;;;;;;38.00;34.00;;;;;14.10;53.77;101613.97;5070406;27;50159;-62
2022/05/03 06:30:16;;;;;;;;;54.75;42.00;;;;;14.04;53.65;101609.44;5070592;28;49894;-64
2022/05/03 06:32:43;;;;;;;;;42.50;36.00;;;;;13.87;52.82;101621.41;5069389;28;49746;-65
2022/05/03 06:35:12;;;;;;;;;46.75;37.75;;;;;13.72;53.79;101619.34;5070568;28;49851;-62
2022/05/03 06:37:40;;;;;;;;;35.75;31.50;;;;;13.71;54.39;101594.72;5069230;28;49790;-65
2022/05/03 06:40:08;;;;;;;;;41.50;36.50;;;;;14.01;52.61;101630.50;5070478;28;49795;-71
2022/05/03 06:42:40;;;;;;;;;24.50;21.00;;;;;14.04;53.78;101606.81;5068975;28;51302;-67
2022/05/03 06:45:07;;;;;;;;;30.50;28.00;;;;;14.26;52.86;101637.16;5066134;28;49631;-73
2022/05/03 06:47:33;;;;;;;;;41.00;34.50;;;;;14.03;52.12;101587.44;5071953;28;50141;-76
2022/05/03 06:49:58;;;;;;;;;43.50;37.00;;;;;14.16;51.98;101592.94;5063053;28;50021;-67
2022/05/03 06:52:25;;;;;;;;;43.75;35.25;;;;;14.28;51.84;101602.03;5065598;28;49832;-70
2022/05/03 06:54:51;;;;;;;;;43.25;36.25;;;;;14.35;50.83;101616.22;5070182;27;49786;-68
2022/05/03 06:57:16;;;;;;;;;43.50;36.75;;;;;14.42;51.02;101631.31;5069334;28;49944;-71
2022/05/03 06:59:42;;;;;;;;;42.25;32.75;;;;;14.31;51.02;101623.19;5070417;28;49871;-68
2022/05/03 07:02:08;;;;;;;;;42.25;35.75;;;;;14.31;51.47;101641.69;5068657;28;51607;-69
2022/05/03 07:04:34;;;;;;;;;40.50;36.00;;;;;14.37;51.60;101637.38;5063832;28;49882;-74
2022/05/03 07:06:59;;;;;;;;;37.50;33.00;;;;;14.43;51.79;101630.47;5068766;28;49868;-69
2022/05/03 07:09:24;;;;;;;;;40.75;34.00;;;;;14.46;51.13;101624.38;5069934;28;49993;-69
2022/05/03 07:11:50;;;;;;;;;36.75;35.25;;;;;14.51;51.13;101643.84;5068328;28;53094;-71
2022/05/03 07:14:16;;;;;;;;;41.00;34.75;;;;;14.37;51.28;101614.47;5070301;27;49744;-69
2022/05/03 07:16:41;;;;;;;;;34.25;33.00;;;;;14.42;51.05;101601.38;5070095;28;49702;-70
2022/05/03 07:24:34;;;;;;;;;43.25;37.75;;;;;14.44;50.94;101619.03;5069806;28;49855;-69
2022/05/03 07:27:00;;;;;;;;;39.00;30.50;;;;;14.55;50.69;101625.44;5067798;28;49838;-67
2022/05/03 07:29:25;;;;;;;;;36.50;33.00;;;;;14.75;50.55;101641.63;5070243;28;49715;-67
2022/05/03 07:31:51;;;;;;;;;39.50;36.00;;;;;14.72;50.05;101638.06;5070737;28;52186;-67
2022/05/03 07:34:16;;;;;;;;;37.25;33.00;;;;;14.82;50.44;101626.78;5072549;27;50226;-67
2022/05/03 07:36:42;;;;;;;;;41.25;35.25;;;;;14.92;49.91;101626.06;5066397;28;49983;-66
2022/05/03 07:39:07;;;;;;;;;39.25;32.25;;;;;15.06;49.88;101621.91;5064288;28;49742;-65
2022/05/03 07:41:33;;;;;;;;;32.00;31.50;;;;;15.34;50.00;101636.44;5070832;27;50778;-68
2022/05/03 07:43:58;;;;;;;;;36.25;34.50;;;;;15.53;49.21;101642.88;5070207;28;49813;-66
2022/05/03 07:46:25;;;;;;;;;37.25;34.50;;;;;15.57;48.37;101634.16;5070489;28;50080;-70
2022/05/03 07:48:50;;;;;;;;;35.25;33.00;;;;;15.69;48.00;101638.75;5076862;27;49994;-72
2022/05/03 07:51:17;;;;;;;;;38.00;32.75;;;;;15.73;48.22;101636.19;5072717;27;49813;-72
2022/05/03 07:53:42;;;;;;;;;37.00;33.50;;;;;15.85;47.34;101648.69;5072893;27;50038;-76
2022/05/03 07:56:10;;;;;;;;;36.00;32.75;;;;;15.86;46.68;101629.28;5073224;28;49826;-75
2022/05/03 07:58:35;;;;;;;;;41.00;36.50;;;;;16.13;46.87;101657.00;5071956;28;50004;-71
2022/05/03 08:01:01;;;;;;;;;33.50;30.00;;;;;16.20;46.61;101640.28;5072837;28;49623;-62
2022/05/03 08:03:27;;;;;;;;;32.75;30.50;;;;;16.33;46.85;101659.88;5072762;28;49530;-69
2022/05/03 08:05:52;;;;;;;;;44.50;36.25;;;;;16.37;45.80;101649.31;5072984;28;49915;-63
2022/05/03 08:08:17;;;;;;;;;31.75;31.75;;;;;16.25;45.79;101641.22;5073016;28;49754;-65
2022/05/03 08:10:45;;;;;;;;;31.00;29.75;;;;;16.29;45.75;101654.53;5072660;28;49742;-63
2022/05/03 08:13:11;;;;;;;;;35.50;32.00;;;;;16.35;46.17;101637.81;5072908;27;49957;-68
2022/05/03 08:15:36;;;;;;;;;32.50;30.50;;;;;16.39;45.63;101642.25;5072947;28;49986;-67
2022/05/03 08:18:01;;;;;;;;;30.50;29.50;;;;;16.43;45.83;101632.59;5072895;28;49893;-63
2022/05/03 08:20:27;;;;;;;;;38.25;33.25;;;;;16.60;45.37;101653.13;5074805;27;52574;-67
2022/05/03 08:22:52;;;;;;;;;41.75;32.25;;;;;16.54;45.81;101654.81;5072297;28;49844;-63
2022/05/03 08:25:17;;;;;;;;;38.50;31.25;;;;;16.56;45.39;101645.09;5072713;28;49921;-64
2022/05/03 08:27:43;;;;;;;;;36.50;31.75;;;;;16.67;45.50;101647.84;5072854;28;49862;-63
2022/05/03 08:30:09;;;;;;;;;42.25;35.50;;;;;16.74;45.16;101661.22;5072048;28;50635;-65
2022/05/03 08:32:35;;;;;;;;;42.50;31.75;;;;;16.65;45.33;101644.31;5072266;28;49890;-62
2022/05/03 08:35:01;;;;;;;;;20.50;16.75;;;;;16.67;45.13;101653.16;5071238;28;49840;-66
2022/05/03 08:42:55;;;;;;;;;33.50;31.25;;;;;16.42;45.53;101644.97;5072311;28;49647;-67
2022/05/03 08:45:21;;;;;;;;;30.25;27.50;;;;;16.53;45.22;101640.66;5071031;28;49912;-69
2022/05/03 08:47:48;;;;;;;;;21.75;19.25;;;;;16.58;44.68;101646.88;5072595;28;49918;-67
2022/05/03 08:50:18;;;;;;;;;30.50;27.00;;;;;16.66;44.70;101662.00;5068625;27;50110;-70
2022/05/03 08:53:05;;;;;;;;;35.25;29.75;;;;;16.70;44.79;101645.28;5068689;28;49882;-69
2022/05/03 08:55:31;;;;;;;;;30.00;26.75;;;;;16.67;44.84;101642.56;5066086;28;49652;-67
2022/05/03 08:57:56;;;;;;;;;35.50;32.25;;;;;16.83;44.61;101655.13;5072250;28;49743;-67
2022/05/03 09:00:23;;;;;;;;;41.75;34.00;;;;;16.99;44.38;101661.47;5081243;27;49853;-66
2022/05/03 09:02:53;;;;;;;;;30.25;29.75;;;;;16.88;44.03;101650.75;5070648;28;49904;-68
2022/05/03 09:05:19;;;;;;;;;28.75;26.75;;;;;16.70;43.70;101656.78;5072158;28;49709;-66
2022/05/03 09:07:52;;;;;;;;;30.50;23.50;;;;;16.90;43.89;101650.78;5072129;28;49919;-66
2022/05/03 09:10:18;;;;;;;;;33.25;29.25;;;;;17.19;43.93;101661.63;5070481;28;52712;-65
2022/05/03 09:12:44;;;;;;;;;33.50;31.00;;;;;17.22;42.92;101665.19;5072037;28;49984;-66
2022/05/03 09:15:11;;;;;;;;;32.75;30.00;;;;;17.07;43.43;101630.56;5065345;28;49555;-66
2022/05/03 09:17:45;;;;;;;;;34.25;29.75;;;;;17.14;43.48;101640.34;5065004;28;49843;-70
2022/05/03 09:25:49;;;;;;;;;33.00;30.00;;;;;17.80;42.62;101662.06;5069561;28;49779;-70
2022/05/03 09:28:15;;;;;;;;;31.75;30.00;;;;;17.80;42.35;101652.34;5071618;28;49701;-70
2022/05/03 09:30:46;;;;;;;;;31.00;29.25;;;;;17.96;42.38;101648.88;5069978;28;51487;-69
2022/05/03 09:33:15;;;;;;;;;30.25;27.75;;;;;18.10;41.32;101664.00;5069635;28;49720;-65
2022/05/03 09:35:41;;;;;;;;;37.25;33.50;;;;;17.94;41.84;101653.28;5071346;28;49530;-67
2022/05/03 09:38:06;;;;;;;;;32.75;28.75;;;;;17.82;41.94;101625.78;5071542;28;49682;-67
2022/05/03 09:40:35;;;;;;;;;28.00;26.50;;;;;18.11;41.63;101652.47;5071064;27;49906;-68
2022/05/03 09:43:01;;;;;;;;;30.75;28.00;;;;;18.18;41.78;101633.03;5070658;27;49985;-64
2022/05/03 09:45:27;;;;;;;;;48.75;34.25;;;;;18.24;41.44;101643.69;5069368;27;51155;-67
2022/05/03 09:47:54;;;;;;;;;32.00;30.00;;;;;18.15;41.04;101643.66;5073019;27;50110;-65
2022/05/03 09:50:27;;;;;;;;;26.25;19.50;;;;;18.18;41.45;101647.19;5069683;28;51726;-64
2022/05/03 09:52:53;;;;;;;;;35.75;29.75;;;;;18.16;41.72;101633.03;5073994;27;49809;-63
2022/05/03 09:55:32;;;;;;;;;32.50;29.25;;;;;18.21;41.56;101633.03;5071194;28;49763;-62
2022/05/03 09:58:03;;;;;;;;;21.25;17.75;;;;;18.30;41.68;101630.41;5065108;28;50009;-68
2022/05/03 10:00:31;;;;;;;;;23.25;21.75;;;;;17.81;41.19;101579.75;5069678;28;50595;-66
2022/05/03 10:02:58;;;;;;;;;29.00;26.75;;;;;18.02;41.80;101622.31;5070685;28;49762;-66
2022/05/03 10:05:25;;;;;;;;;29.75;27.00;;;;;18.01;42.07;101623.22;5078947;27;50214;-67
2022/05/03 10:07:52;;;;;;;;;22.50;22.50;;;;;18.16;41.99;101641.00;5083688;28;49483;-64
2022/05/03 10:10:19;;;;;;;;;26.75;25.00;;;;;18.13;41.97;101634.75;5088229;27;49688;-64
2022/05/03 10:12:46;;;;;;;;;28.75;27.00;;;;;18.25;41.60;101629.50;5084184;28;49484;-65
2022/05/03 10:15:14;;;;;;;;;22.00;21.75;;;;;18.31;41.60;101635.72;5086003;27;49877;-65
2022/05/03 10:20:42;;;;;;;;;26.00;24.75;;;;;18.25;41.04;101637.47;5078291;28;49829;-64
2022/05/03 10:23:28;;;;;;;;;20.50;20.50;;;;;18.14;40.31;101610.84;5082818;27;49787;-64
2022/05/03 10:25:54;;;;;;;;;29.75;27.50;;;;;18.13;41.30;101632.09;5073612;28;49819;-64
2022/05/03 10:28:20;;;;;;;;;25.25;22.00;;;;;18.06;40.74;101636.53;5086105;28;49330;-65
2022/05/03 10:31:05;;;;;;;;;26.00;24.00;;;;;17.93;40.67;101602.81;5080531;27;49683;-65
2022/05/03 10:33:30;;;;;;;;;22.25;19.50;;;;;18.11;41.04;101632.09;5080178;27;49710;-65
2022/05/03 10:35:57;;;;;;;;;31.75;23.25;;;;;17.97;40.89;101601.94;5085572;28;49731;-65
2022/05/03 10:38:49;;;;;;;;;25.50;23.75;;;;;18.26;41.33;101633.94;5082797;28;49637;-67
2022/05/03 10:41:23;;;;;;;;;22.50;19.75;;;;;18.19;40.17;101619.72;5080914;27;49878;-66
2022/05/03 10:43:49;;;;;;;;;18.00;16.50;;;;;18.22;40.13;101613.53;5084133;28;49464;-65
2022/05/03 10:46:20;;;;;;;;;23.50;19.25;;;;;18.40;40.17;101628.66;5077399;28;49913;-65
2022/05/03 10:49:15;;;;;;;;;19.00;18.50;;;;;18.48;39.71;101629.56;5085924;28;50237;-65
2022/05/03 10:51:42;;;;;;;;;22.25;19.75;;;;;18.35;40.15;101585.22;5077732;27;50478;-65
2022/05/03 10:54:07;;;;;;;;;24.00;23.00;;;;;18.48;39.77;101584.34;5084794;28;49431;-65
2022/05/03 10:56:33;;;;;;;;;23.25;20.25;;;;;18.68;39.33;101624.31;5083080;27;49922;-65
2022/05/03 10:59:16;;;;;;;;;25.25;22.50;;;;;18.37;38.77;101570.16;5085084;27;49427;-70
2022/05/03 11:01:54;;;;;;;;;25.25;21.00;;;;;18.62;38.53;101609.19;5084174;27;49683;-71
2022/05/03 11:04:20;;;;;;;;;18.75;15.25;;;;;18.56;38.47;101586.16;5084653;28;49882;-72
2022/05/03 11:06:49;;;;;;;;;12.00;11.00;;;;;18.49;38.56;101571.06;5083429;28;49679;-71
2022/05/03 11:09:25;;;;;;;;;16.00;14.25;;;;;18.79;37.99;101607.47;5085672;28;49419;-74
2022/05/03 11:11:52;;;;;;;;;22.50;16.50;;;;;18.90;37.92;101609.22;5087935;28;49699;-72
2022/05/03 11:16:51;;;;;;;;;18.25;14.00;;;;;18.84;36.86;101605.69;5089894;28;49513;-77
2022/05/03 11:19:21;;;;;;;;;14.00;13.00;;;;;18.78;37.22;101554.25;5084918;27;49870;-74
2022/05/03 11:21:49;;;;;;;;;14.00;14.00;;;;;19.08;36.81;101603.91;5088404;28;50074;-72
2022/05/03 11:24:30;;;;;;;;;13.50;12.00;;;;;19.07;37.16;101596.81;5081531;28;49533;-71
2022/05/03 11:26:58;;;;;;;;;15.50;13.25;;;;;19.09;36.88;101600.34;5081194;28;49435;-73
2022/05/03 11:29:28;;;;;;;;;16.75;15.75;;;;;19.10;36.91;101600.34;5089080;28;49759;-76
2022/05/03 11:31:55;;;;;;;;;18.75;16.50;;;;;19.16;35.99;101592.38;5086917;27;49867;-77
2022/05/03 11:34:20;;;;;;;;;19.50;14.75;;;;;19.18;35.27;101600.34;5088322;28;49883;-75
2022/05/03 11:36:48;;;;;;;;;21.75;14.50;;;;;19.17;35.80;101602.13;5083574;28;49554;-76
2022/05/03 11:39:14;;;;;;;;;18.25;14.50;;;;;19.25;35.50;101596.78;5089758;28;49524;-75
2022/05/03 11:41:42;;;;;;;;;20.50;14.75;;;;;19.18;35.71;101584.38;5082894;27;50482;-73
2022/05/03 11:44:07;;;;;;;;;10.25;10.25;;;;;19.00;35.39;101560.44;5086362;28;49359;-72
2022/05/03 11:46:33;;;;;;;;;9.00;9.00;;;;;19.24;35.45;101576.41;5086925;28;49831;-71
2022/05/03 11:49:05;;;;;;;;;14.00;13.75;;;;;19.45;34.83;101588.75;5087470;28;49879;-75
2022/05/03 11:57:13;;;;;;;;;11.00;10.00;;;;;19.41;35.53;101545.28;5088770;28;49348;-76
2022/05/03 11:59:39;;;;;;;;;8.50;8.50;;;;;19.50;34.29;101564.81;5086273;28;49868;-74